Crotone Airport LIBC

Flugplatz Daten

Name: Crotone Airport

Ident: LIBC

Lat: 38,99720001

Long: 17,0802002

Platzhöhe: 522 ft

IataCode: CRV

City: Crotone

Homepage: http://www.aeroporto.kr.it/cartaservizi_eng.asp

Metar

2021/08/05 13:50
LIBC 051350Z 22013KT 190V250 CAVOK 32/20 Q1010

Taf

2021/08/05 12:21
TAF LIBC 051100Z 0512/0612 26019G29KT CAVOK
BECMG 0519/0521 VRB06KT
BECMG 0604/0606 34015KT
BECMG 0609/0611 10012KT
Gewünschte Webcam nicht vorhanden? Dann fügen Sie eine hinzu. Sie wird dann so schnell wie möglich freigeschaltet
Url: Title: